Time;durP1;ratioP1;P1;durP2;ratioP2;P2;SDS_P1;SDS_P2;PMS_P1;PMS_P2;Temp;Humidity;BMP_temperature;BMP_pressure;BME280_temperature;BME280_humidity;BME280_pressure;Samples;Min_cycle;Max_cycle;Signal;HPM_P1;HPM_P2
2022/05/11 00:01:46;;;;;;;57.13;29.05;;;;;;;28.90;78.31;97500.59;4927315;29;20481;-69
2022/05/11 00:04:41;;;;;;;63.45;29.38;;;;;;;28.90;76.06;97505.91;4927717;29;20064;-68
2022/05/11 00:07:17;;;;;;;42.28;28.42;;;;;;;28.89;76.46;97512.25;4912339;29;20490;-69
2022/05/11 00:10:15;;;;;;;46.83;28.80;;;;;;;28.88;76.67;97513.25;4924702;29;20118;-70
2022/05/11 00:12:51;;;;;;;47.47;28.63;;;;;;;28.83;76.68;97513.81;4932351;28;20098;-70
2022/05/11 00:15:40;;;;;;;51.30;28.23;;;;;;;28.84;79.32;97514.63;4913932;29;20058;-70
2022/05/11 00:18:29;;;;;;;53.53;29.10;;;;;;;28.81;79.42;97520.34;4919593;29;20048;-70
2022/05/11 00:21:12;;;;;;;51.88;29.23;;;;;;;28.76;79.54;97510.28;4929537;29;20082;-69
2022/05/11 00:24:00;;;;;;;46.22;29.33;;;;;;;28.74;79.68;97503.47;4930304;29;20052;-69
2022/05/11 00:26:42;;;;;;;48.22;28.48;;;;;;;28.76;80.07;97520.06;4928149;29;20142;-69
2022/05/11 00:29:31;;;;;;;57.20;29.05;;;;;;;28.76;81.52;97528.84;4910674;29;20048;-70
2022/05/11 00:32:27;;;;;;;52.15;28.70;;;;;;;28.74;83.43;97520.22;4910016;29;20044;-70
2022/05/11 00:35:04;;;;;;;49.40;29.17;;;;;;;28.71;77.12;97531.22;4910723;29;20131;-69
2022/05/11 00:37:54;;;;;;;51.13;29.58;;;;;;;28.76;82.35;97523.53;4910239;29;20048;-70
2022/05/11 00:40:51;;;;;;;42.45;27.77;;;;;;;28.77;81.73;97522.53;4924473;29;20063;-70
2022/05/11 00:43:52;;;;;;;53.75;29.50;;;;;;;28.76;79.46;97522.72;4917726;29;20502;-69
2022/05/11 00:46:42;;;;;;;49.65;27.55;;;;;;;28.80;79.25;97524.81;4910587;29;20087;-69
2022/05/11 00:49:51;;;;;;;53.85;29.42;;;;;;;28.83;80.14;97528.91;4910588;29;20048;-69
2022/05/11 00:53:00;;;;;;;49.17;29.25;;;;;;;28.84;84.03;97525.25;4925090;28;20131;-69
2022/05/11 00:55:58;;;;;;;54.55;29.65;;;;;;;28.83;81.75;97534.19;4910800;29;20044;-70
2022/05/11 00:58:52;;;;;;;49.28;29.80;;;;;;;28.88;82.91;97539.78;4910995;29;20082;-70
2022/05/11 01:01:42;;;;;;;53.38;29.55;;;;;;;28.92;83.48;97543.69;4930316;28;20051;-69
2022/05/11 01:04:28;;;;;;;47.92;27.88;;;;;;;28.96;84.59;97544.13;4937102;28;20051;-70
2022/05/11 01:07:16;;;;;;;48.70;28.88;;;;;;;29.01;85.67;97549.69;4948009;28;20452;-70
2022/05/11 01:09:59;;;;;;;48.95;29.05;;;;;;;29.01;83.20;97549.69;4951300;28;20044;-69
2022/05/11 01:12:52;;;;;;;49.60;28.73;;;;;;;29.08;85.29;97550.56;4949269;28;20066;-70
2022/05/11 01:15:42;;;;;;;56.10;29.88;;;;;;;29.12;86.55;97550.00;4946099;28;20043;-70
2022/05/11 01:18:39;;;;;;;48.95;28.65;;;;;;;29.17;85.51;97554.72;4923403;29;20131;-70
2022/05/11 01:21:15;;;;;;;55.72;31.15;;;;;;;29.20;86.50;97557.00;4910690;29;20495;-70
2022/05/11 01:24:29;;;;;;;51.88;29.90;;;;;;;29.27;86.39;97555.22;4911085;29;20376;-69
2022/05/11 01:27:33;;;;;;;;;;;;;;;29.35;88.57;97556.91;4907275;29;20048;-70
2022/05/11 01:30:23;;;;;;;45.22;29.35;;;;;;;29.39;85.88;97560.84;4923494;29;19923;-70
2022/05/11 01:33:05;;;;;;;57.40;29.25;;;;;;;29.47;87.16;97563.38;4910332;29;20052;-69
2022/05/11 01:36:34;;;;;;;53.20;29.90;;;;;;;29.56;87.71;97562.22;4909361;29;20048;-69
2022/05/11 01:39:10;;;;;;;57.90;32.22;;;;;;;29.66;88.76;97562.69;4909760;29;20111;-69
2022/05/11 01:42:04;;;;;;;55.55;30.55;;;;;;;29.74;85.46;97575.81;4910206;29;20491;-70
2022/05/11 01:44:40;;;;;;;54.08;31.35;;;;;;;29.87;86.12;97572.41;4911494;29;20043;-69
2022/05/11 01:47:31;;;;;;;65.10;31.92;;;;;;;29.99;86.82;97581.53;4909797;29;20048;-69
2022/05/11 01:50:12;;;;;;;;;;;;;;;30.17;91.56;97581.03;4913263;29;20044;-69
2022/05/11 01:53:08;;;;;;;52.47;32.45;;;;;;;30.42;88.30;97582.13;4929936;29;19923;-70
2022/05/11 01:55:44;;;;;;;56.10;32.47;;;;;;;30.58;85.06;97581.00;4929959;29;20059;-70
2022/05/11 01:58:39;;;;;;;57.90;33.92;;;;;;;30.82;86.96;97596.41;4929906;28;20056;-70
2022/05/11 02:01:30;;;;;;;74.95;35.00;;;;;;;30.98;80.26;97605.88;4929433;29;20051;-70
2022/05/11 02:10:31;;;;;;;64.82;38.03;;;;;;;31.70;82.64;97600.66;4928741;29;20051;-68
2022/05/11 02:13:19;;;;;;;69.57;38.95;;;;;;;31.89;78.45;97599.00;4927880;29;20118;-69
2022/05/11 02:16:01;;;;;;;77.32;39.42;;;;;;;32.11;81.26;97600.38;4929735;29;20119;-70
2022/05/11 02:18:51;;;;;;;74.50;38.92;;;;;;;32.21;81.23;97603.47;4919542;29;20048;-70
2022/05/11 02:21:33;;;;;;;62.88;37.80;;;;;;;32.47;78.28;97607.09;4909129;29;20683;-69
2022/05/11 02:24:23;;;;;;;66.22;39.17;;;;;;;32.73;77.34;97611.53;4916519;29;20044;-69
2022/05/11 02:27:12;;;;;;;92.07;39.75;;;;;;;32.96;75.17;97612.63;4928471;29;20043;-69
2022/05/11 02:30:03;;;;;;;67.95;37.67;;;;;;;33.22;76.07;97616.19;4927663;29;20047;-69
2022/05/11 02:32:45;;;;;;;60.33;35.88;;;;;;;33.43;69.73;97619.34;4928855;29;20055;-69
2022/05/11 02:35:41;;;;;;;77.05;37.40;;;;;;;33.61;63.77;97623.91;4929271;29;20050;-69
2022/05/11 02:38:21;;;;;;;77.15;37.28;;;;;;;33.82;65.21;97621.91;4931533;29;20048;-71
2022/05/11 02:41:10;;;;;;;61.28;31.90;;;;;;;34.06;65.23;97627.22;4933513;29;20087;-68
2022/05/11 02:43:51;;;;;;;64.43;31.63;;;;;;;34.15;63.30;97633.13;4937415;29;20093;-68
2022/05/11 02:46:40;;;;;;;54.42;29.17;;;;;;;34.11;60.08;97631.91;4935841;29;20055;-69
2022/05/11 02:49:30;;;;;;;58.78;28.48;;;;;;;34.20;60.44;97635.94;4935466;29;20055;-69
2022/05/11 02:52:14;;;;;;;56.25;28.23;;;;;;;34.43;59.39;97637.97;4936109;29;20047;-70
2022/05/11 02:55:02;;;;;;;56.03;27.80;;;;;;;34.48;60.60;97638.94;4936157;29;20039;-69
2022/05/11 02:57:52;;;;;;;53.42;27.90;;;;;;;34.62;58.95;97642.28;4935524;28;20077;-68
2022/05/11 03:00:51;;;;;;;55.20;27.65;;;;;;;34.80;59.50;97644.16;4935157;29;20052;-70
2022/05/11 03:03:33;;;;;;;53.58;29.90;;;;;;;34.77;57.65;97657.97;4934141;29;20051;-69
2022/05/11 03:06:22;;;;;;;62.08;30.17;;;;;;;34.76;57.45;97653.66;4932292;29;20055;-70
2022/05/11 03:09:06;;;;;;;52.78;29.33;;;;;;;35.05;58.38;97660.06;4934207;29;20052;-70
2022/05/11 03:11:55;;;;;;;55.83;31.02;;;;;;;35.30;59.85;97658.91;4935120;29;20111;-69
2022/05/11 03:14:37;;;;;;;54.58;30.83;;;;;;;35.29;57.14;97661.81;4934177;29;20759;-68
2022/05/11 03:17:26;;;;;;;56.03;30.77;;;;;;;35.49;56.90;97661.53;4934026;29;20708;-69
2022/05/11 03:20:10;;;;;;;60.28;29.60;;;;;;;35.67;57.96;97653.44;4933647;28;20060;-69
2022/05/11 03:23:03;;;;;;;67.88;29.58;;;;;;;35.79;56.38;97662.31;4949641;28;20043;-69
2022/05/11 03:25:52;;;;;;;55.20;26.75;;;;;;;35.86;57.33;97657.66;4951952;28;20054;-69
2022/05/11 03:28:41;;;;;;;64.47;29.45;;;;;;;35.68;55.88;97661.22;4951512;28;20046;-68
2022/05/11 03:31:23;;;;;;;63.85;29.08;;;;;;;35.50;56.47;97664.00;4950699;28;20039;-69
2022/05/11 03:37:23;;;;;;;59.88;27.70;;;;;;;36.02;56.47;97662.34;4950913;28;20051;-69
2022/05/11 03:40:07;;;;;;;54.63;26.85;;;;;;;36.07;58.32;97658.97;4951010;28;20047;-69
2022/05/11 03:42:56;;;;;;;53.05;27.60;;;;;;;35.79;56.79;97661.50;4951022;28;20051;-69
2022/05/11 03:45:38;;;;;;;58.08;29.48;;;;;;;35.64;54.89;97661.91;4949817;29;20050;-68
2022/05/11 03:48:27;;;;;;;51.88;29.58;;;;;;;35.98;56.18;97650.44;4950780;28;20474;-68
2022/05/11 03:51:10;;;;;;;67.50;29.70;;;;;;;36.29;53.91;97657.34;4950385;28;20759;-69
2022/05/11 03:53:59;;;;;;;59.60;29.40;;;;;;;35.87;55.41;97653.13;4944208;28;20051;-69
2022/05/11 03:56:41;;;;;;;56.15;28.63;;;;;;;36.29;55.12;97657.34;4931395;28;20494;-68
2022/05/11 03:59:30;;;;;;;56.53;27.65;;;;;;;36.40;55.79;97659.19;4933139;29;20687;-68
2022/05/11 04:02:12;;;;;;;52.28;30.48;;;;;;;36.48;54.14;97658.00;4926493;29;20053;-69
2022/05/11 04:05:02;;;;;;;54.60;30.10;;;;;;;36.38;56.65;97652.44;4930238;29;20051;-68
2022/05/11 04:07:44;;;;;;;49.15;28.70;;;;;;;36.75;54.56;97661.00;4930479;29;20052;-68
2022/05/11 04:10:33;;;;;;;54.22;29.48;;;;;;;36.85;54.25;97655.84;4929953;29;20063;-68
2022/05/11 04:13:16;;;;;;;64.72;30.35;;;;;;;36.93;53.28;97660.03;4930089;29;20043;-69
2022/05/11 04:16:07;;;;;;;57.42;28.73;;;;;;;37.52;54.92;97653.31;4929948;29;20048;-69
2022/05/11 04:18:55;;;;;;;67.97;32.25;;;;;;;37.16;50.88;97658.09;4926663;29;20535;-69
2022/05/11 04:21:37;;;;;;;60.33;31.45;;;;;;;37.05;51.22;97644.66;4929533;29;20063;-65
2022/05/11 04:24:26;;;;;;;71.28;32.30;;;;;;;37.24;51.17;97656.06;4929320;29;20059;-64
2022/05/11 04:27:15;;;;;;;58.80;31.17;;;;;;;37.00;54.00;97649.94;4928896;29;20055;-65
2022/05/11 04:29:57;;;;;;;73.68;31.55;;;;;;;37.48;54.21;97650.31;4924513;29;20047;-64
2022/05/11 04:32:46;;;;;;;57.58;31.77;;;;;;;37.51;52.72;97649.84;4909983;29;20056;-64
2022/05/11 04:35:30;;;;;;;61.72;31.83;;;;;;;37.87;53.40;97658.50;4910372;29;20142;-65
2022/05/11 04:38:19;;;;;;;60.05;33.15;;;;;;;37.65;50.25;97654.91;4910338;29;20051;-65
2022/05/11 04:41:01;;;;;;;56.90;31.23;;;;;;;37.92;51.37;97655.88;4913884;29;20070;-65
2022/05/11 04:43:51;;;;;;;59.50;30.60;;;;;;;38.16;50.30;97654.66;4917864;29;20077;-65
2022/05/11 04:46:33;;;;;;;55.88;30.55;;;;;;;37.89;49.76;97656.38;4921640;29;20048;-66
2022/05/11 04:49:24;;;;;;;57.53;29.65;;;;;;;37.75;48.80;97655.09;4918017;29;20149;-66
2022/05/11 04:52:09;;;;;;;;;;;;;;;37.89;48.94;97659.06;4917776;29;20044;-66
2022/05/11 04:54:57;;;;;;;50.95;27.27;;;;;;;37.96;48.19;97661.59;4920884;29;19931;-66
2022/05/11 04:57:45;;;;;;;59.17;28.40;;;;;;;38.19;47.59;97656.84;4920158;28;20055;-68
2022/05/11 05:00:35;;;;;;;53.88;25.27;;;;;;;38.34;48.84;97658.13;4918583;29;20051;-67
2022/05/11 05:03:24;;;;;;;55.95;26.85;;;;;;;38.12;45.82;97650.03;4934230;29;20056;-66
2022/05/11 05:06:06;;;;;;;46.25;21.15;;;;;;;38.22;45.33;97651.00;4928486;29;20063;-65
2022/05/11 05:08:55;;;;;;;49.95;21.92;;;;;;;38.52;47.81;97653.28;4928772;29;20051;-66
2022/05/11 05:11:38;;;;;;;39.63;19.48;;;;;;;38.76;43.73;97653.03;4927718;29;20044;-66
2022/05/11 05:14:27;;;;;;;47.30;19.88;;;;;;;38.75;43.63;97646.84;4916502;29;20088;-66
2022/05/11 05:17:10;;;;;;;38.85;19.40;;;;;;;38.83;43.68;97641.00;4926749;29;20051;-67
2022/05/11 05:19:59;;;;;;;40.33;18.08;;;;;;;38.85;40.48;97648.84;4913477;29;20080;-67
2022/05/11 05:22:49;;;;;;;46.53;19.63;;;;;;;39.11;43.86;97647.28;4923213;29;20078;-65
2022/05/11 05:25:32;;;;;;;;;;;;;;;39.23;41.92;97646.03;4932428;28;20051;-67
2022/05/11 05:31:34;;;;;;;45.28;17.60;;;;;;;39.18;42.66;97639.78;4918037;29;20111;-65
2022/05/11 05:34:16;;;;;;;41.35;19.55;;;;;;;39.44;45.07;97648.94;4912965;29;20059;-68
2022/05/11 05:37:05;;;;;;;33.63;17.65;;;;;;;39.26;40.42;97645.53;4912821;29;20060;-68
2022/05/11 05:39:47;;;;;;;38.03;19.15;;;;;;;39.37;44.54;97644.53;4948574;28;20051;-69
2022/05/11 05:42:37;;;;;;;34.67;18.27;;;;;;;39.52;43.35;97643.88;4914328;28;20055;-71
2022/05/11 05:45:19;;;;;;;;;;;;;;;39.51;37.40;97649.56;4909427;29;20044;-69
2022/05/11 05:48:14;;;;;;;39.47;15.75;;;;;;;39.44;38.12;97644.34;4909006;29;19923;-69
2022/05/11 05:50:51;;;;;;;33.83;15.43;;;;;;;39.51;38.82;97655.78;4909096;29;20182;-69
2022/05/11 05:53:46;;;;;;;;;;;;;;;39.48;37.50;97658.97;4925011;29;20122;-69
2022/05/11 05:56:21;;;;;;;27.08;13.38;;;;;;;39.40;43.74;97643.25;4909751;29;20369;-69
2022/05/11 05:59:18;;;;;;;;;;;;;;;39.33;40.02;97640.75;4907720;29;20543;-69
2022/05/11 06:02:14;;;;;;;27.30;13.88;;;;;;;39.32;40.63;97632.91;4925422;29;19926;-69
2022/05/11 06:05:11;;;;;;;36.42;16.23;;;;;;;39.41;38.84;97631.41;4918717;29;20043;-69
2022/05/11 06:07:47;;;;;;;35.58;16.17;;;;;;;39.20;38.87;97629.53;4922459;29;20070;-68
2022/05/11 06:10:39;;;;;;;52.80;17.60;;;;;;;39.33;41.27;97635.34;4930832;29;20122;-69
2022/05/11 06:13:24;;;;;;;30.48;16.73;;;;;;;39.18;40.43;97629.00;4932389;29;20051;-69
2022/05/11 06:16:16;;;;;;;34.03;17.50;;;;;;;39.09;40.78;97627.84;4911967;29;20322;-69
2022/05/11 06:18:57;;;;;;;30.98;15.80;;;;;;;39.21;42.86;97631.19;4914438;29;20491;-68
2022/05/11 06:21:48;;;;;;;33.50;15.43;;;;;;;39.20;40.71;97629.53;4892781;29;20058;-67
2022/05/11 06:24:41;;;;;;;31.80;16.55;;;;;;;39.33;39.41;97629.97;4932584;29;20130;-67
2022/05/11 06:27:23;;;;;;;33.83;17.92;;;;;;;39.45;41.02;97616.31;4931695;29;20464;-68
2022/05/11 06:30:14;;;;;;;37.15;16.02;;;;;;;39.39;39.54;97620.06;4930927;29;20055;-67
2022/05/11 06:32:56;;;;;;;;;;;;;;;39.26;38.02;97617.75;4933020;29;20044;-69
2022/05/11 06:35:45;;;;;;;36.95;19.00;;;;;;;39.04;38.56;97615.09;4931740;29;19931;-68
2022/05/11 06:38:34;;;;;;;45.50;17.25;;;;;;;39.20;38.88;97607.97;4931231;29;20558;-67
2022/05/11 06:41:20;;;;;;;;;;;;;;;39.30;40.90;97608.09;4923097;29;20134;-67
2022/05/11 06:44:11;;;;;;;35.08;18.30;;;;;;;39.26;38.92;97605.09;4931093;29;19926;-68
2022/05/11 06:46:52;;;;;;;29.42;19.05;;;;;;;39.41;40.21;97607.13;4923906;29;20127;-66
2022/05/11 06:49:48;;;;;;;28.00;17.95;;;;;;;39.38;38.84;97597.69;4912589;29;20052;-68
2022/05/11 06:52:24;;;;;;;40.03;19.77;;;;;;;39.41;39.22;97590.97;4912285;29;20052;-69
2022/05/11 07:01:27;;;;;;;46.50;19.70;;;;;;;39.37;37.38;97595.19;4921113;29;20047;-67
2022/05/11 07:04:16;;;;;;;36.38;19.38;;;;;;;39.53;38.77;97580.78;4931891;29;20048;-67
2022/05/11 07:07:05;;;;;;;34.75;18.20;;;;;;;39.55;38.30;97575.97;4929818;29;20060;-69
2022/05/11 07:09:40;;;;;;;37.95;19.50;;;;;;;39.17;39.17;97578.84;4930828;28;20056;-64
2022/05/11 07:12:35;;;;;;;;;;;;;;;39.43;40.71;97586.13;4920899;29;20135;-68
2022/05/11 07:15:19;;;;;;;60.95;20.55;;;;;;;39.43;37.00;97575.34;4934007;29;19926;-68
2022/05/11 07:18:13;;;;;;;37.88;21.08;;;;;;;39.51;36.83;97564.09;4931009;28;20344;-69
2022/05/11 07:20:51;;;;;;;44.88;19.63;;;;;;;39.56;39.70;97564.09;4928532;29;20086;-69
2022/05/11 07:23:41;;;;;;;40.70;19.70;;;;;;;39.68;38.27;97562.00;4927009;28;20175;-69
2022/05/11 07:26:24;;;;;;;43.40;19.73;;;;;;;39.70;39.94;97559.88;4916626;29;20052;-69
2022/05/11 07:29:12;;;;;;;44.25;19.02;;;;;;;39.57;38.65;97564.91;4929971;29;20059;-68
2022/05/11 07:31:54;;;;;;;61.08;19.35;;;;;;;39.56;38.99;97553.31;4931135;29;20052;-67
2022/05/11 07:34:49;;;;;;;45.90;18.88;;;;;;;39.66;38.17;97548.00;4931039;29;20387;-69
2022/05/11 07:37:25;;;;;;;36.80;19.45;;;;;;;39.58;38.20;97558.47;4930173;29;20052;-68
2022/05/11 07:40:16;;;;;;;62.95;21.40;;;;;;;39.54;37.14;97558.16;4931010;29;20063;-67
2022/05/11 07:43:06;;;;;;;44.13;18.58;;;;;;;39.44;39.05;97541.88;4931221;29;20055;-67
2022/05/11 07:45:54;;;;;;;30.95;17.80;;;;;;;39.44;37.10;97533.81;4930647;29;20048;-67
2022/05/11 07:48:37;;;;;;;44.70;19.95;;;;;;;39.31;35.85;97529.66;4926289;29;20044;-67
2022/05/11 07:51:26;;;;;;;39.38;17.85;;;;;;;39.43;38.50;97524.13;4930115;29;20039;-67
2022/05/11 07:54:15;;;;;;;39.35;17.65;;;;;;;39.47;37.83;97522.50;4923241;29;20399;-67
2022/05/11 08:00:06;;;;;;;39.78;17.25;;;;;;;39.49;37.07;97517.69;4916792;29;20956;-67
2022/05/11 08:02:55;;;;;;;39.72;17.65;;;;;;;39.51;37.19;97522.81;4908951;29;20131;-67
2022/05/11 08:05:44;;;;;;;36.38;16.92;;;;;;;39.43;39.02;97515.22;4911896;29;20044;-67
2022/05/11 08:08:29;;;;;;;40.08;17.27;;;;;;;39.33;37.58;97513.22;4925496;29;20058;-67
2022/05/11 08:11:18;;;;;;;32.38;16.15;;;;;;;39.44;37.51;97512.22;4929142;29;20664;-66
2022/05/11 08:14:08;;;;;;;42.42;16.48;;;;;;;39.22;36.73;97498.03;4934514;29;20078;-68
2022/05/11 08:16:52;;;;;;;35.03;17.40;;;;;;;39.22;40.09;97498.03;4932624;29;20062;-68
2022/05/11 08:19:42;;;;;;;34.03;16.20;;;;;;;39.24;38.94;97491.31;4917717;29;20055;-67
2022/05/11 08:22:24;;;;;;;34.35;15.32;;;;;;;39.25;38.02;97484.03;4914196;29;20067;-67
2022/05/11 08:25:17;;;;;;;34.58;15.63;;;;;;;39.26;35.79;97482.97;4913273;29;20044;-67
2022/05/11 08:28:01;;;;;;;30.00;15.27;;;;;;;39.34;35.41;97479.78;4914872;29;20055;-67
2022/05/11 08:33:51;;;;;;;34.40;15.50;;;;;;;39.39;35.49;97460.97;4911219;29;20817;-67
2022/05/11 08:36:50;;;;;;;32.83;14.13;;;;;;;39.31;37.00;97464.94;4909978;29;20532;-67
2022/05/11 08:39:32;;;;;;;43.53;14.43;;;;;;;39.19;33.25;97458.13;4911618;29;20055;-68
2022/05/11 08:42:21;;;;;;;35.13;14.32;;;;;;;39.22;32.66;97454.91;4913014;29;20052;-67
2022/05/11 08:45:10;;;;;;;33.92;14.55;;;;;;;39.19;33.42;97452.75;4917134;29;20052;-67
2022/05/11 08:48:04;;;;;;;35.28;14.98;;;;;;;39.17;36.45;97447.59;4917442;29;20064;-67
2022/05/11 08:50:50;;;;;;;31.85;16.00;;;;;;;39.15;33.22;97438.97;4921585;29;20475;-67
2022/05/11 08:53:41;;;;;;;;;;;;;;;39.25;32.66;97435.53;4912294;29;20144;-67
2022/05/11 08:56:35;;;;;;;32.88;15.05;;;;;;;39.29;35.91;97425.81;4922819;29;19930;-68
2022/05/11 08:59:26;;;;;;;27.95;16.60;;;;;;;39.19;35.81;97421.22;4910645;29;20058;-67
2022/05/11 09:02:42;;;;;;;35.85;18.13;;;;;;;39.12;35.15;97417.91;4908831;29;20142;-67
2022/05/11 09:05:27;;;;;;;26.13;16.75;;;;;;;38.90;36.52;97414.47;4923565;29;20055;-68
2022/05/11 09:08:15;;;;;;;25.75;17.23;;;;;;;38.76;37.10;97406.03;4928601;28;20403;-68
2022/05/11 09:10:58;;;;;;;37.25;19.25;;;;;;;38.84;35.16;97405.56;4929684;28;20534;-68
2022/05/11 09:13:47;;;;;;;38.72;19.77;;;;;;;38.85;36.00;97399.09;4931723;28;20150;-68
2022/05/11 09:16:32;;;;;;;38.78;19.60;;;;;;;38.66;38.27;97389.78;4948509;28;20134;-66
2022/05/11 09:19:24;;;;;;;35.58;18.10;;;;;;;38.54;35.15;97384.59;4936156;28;20483;-69
2022/05/11 09:22:22;;;;;;;32.28;19.08;;;;;;;38.49;38.47;97373.72;4929775;29;20059;-70
2022/05/11 09:25:31;;;;;;;36.75;18.88;;;;;;;38.40;36.63;97371.75;4928826;29;20467;-70
2022/05/11 09:28:19;;;;;;;28.42;19.00;;;;;;;38.36;38.57;97376.03;4929431;29;20068;-69
2022/05/11 09:31:16;;;;;;;38.70;18.17;;;;;;;38.33;40.02;97363.09;4928946;29;20531;-69
2022/05/11 09:34:07;;;;;;;31.77;17.33;;;;;;;38.28;38.47;97364.69;4929802;29;20043;-69
2022/05/11 09:37:28;;;;;;;37.70;18.42;;;;;;;38.29;38.91;97354.72;4929204;29;20367;-69
2022/05/11 09:40:21;;;;;;;39.30;18.42;;;;;;;38.37;39.16;97353.44;4929247;29;20666;-69
2022/05/11 09:43:10;;;;;;;31.80;17.05;;;;;;;38.25;39.55;97349.03;4929472;29;20459;-69
2022/05/11 09:45:53;;;;;;;;;;;;;;;38.14;39.10;97347.31;4929419;29;20488;-70
2022/05/11 09:48:59;;;;;;;33.80;17.48;;;;;;;38.02;41.78;97333.16;4929034;29;19934;-70
2022/05/11 09:51:50;;;;;;;31.48;18.05;;;;;;;37.86;39.44;97332.22;4928914;29;20048;-70
2022/05/11 09:54:57;;;;;;;37.00;17.55;;;;;;;37.95;39.97;97321.81;4928646;29;20054;-71
2022/05/11 09:57:46;;;;;;;46.33;17.98;;;;;;;37.96;40.13;97317.25;4929120;28;20047;-70
2022/05/11 10:00:42;;;;;;;34.95;18.67;;;;;;;37.92;37.78;97319.63;4925871;29;20052;-71
2022/05/11 10:03:39;;;;;;;38.75;17.83;;;;;;;38.16;36.80;97317.44;4924133;28;20036;-70
2022/05/11 10:06:58;;;;;;;42.30;16.90;;;;;;;38.23;36.94;97310.00;4928969;29;20435;-70
2022/05/11 10:09:45;;;;;;;44.15;15.65;;;;;;;38.30;34.01;97305.22;4928706;29;20451;-71
2022/05/11 10:12:38;;;;;;;39.40;15.43;;;;;;;38.26;37.61;97302.22;4928997;29;20047;-71
2022/05/11 10:22:24;;;;;;;43.22;14.90;;;;;;;38.48;32.76;97293.22;4860679;29;20065;-71
2022/05/11 10:25:30;;;;;;;32.10;15.90;;;;;;;38.50;33.96;97288.41;4869896;29;20056;-70
2022/05/11 10:28:37;;;;;;;41.75;16.77;;;;;;;38.37;36.05;97286.16;4909777;29;20064;-72
2022/05/11 10:31:31;;;;;;;37.00;16.17;;;;;;;38.43;35.89;97287.81;4920604;29;20070;-71
2022/05/11 10:34:58;;;;;;;28.20;15.55;;;;;;;38.40;35.96;97274.84;4928791;29;20139;-71
2022/05/11 10:38:08;;;;;;;45.25;15.75;;;;;;;38.36;34.85;97263.81;4925344;29;20067;-68
2022/05/11 10:41:03;;;;;;;30.63;15.05;;;;;;;38.34;34.62;97270.50;4908055;29;20044;-69
2022/05/11 10:44:12;;;;;;;27.67;14.85;;;;;;;38.27;34.04;97271.53;4912394;29;20798;-68
2022/05/11 10:47:06;;;;;;;36.35;14.55;;;;;;;38.23;34.36;97264.25;4926538;29;20055;-69
2022/05/11 10:50:34;;;;;;;28.83;14.23;;;;;;;38.16;33.72;97264.44;4927366;29;20044;-69
2022/05/11 10:53:42;;;;;;;32.40;14.77;;;;;;;38.12;34.82;97260.66;4945928;28;20146;-68
2022/05/11 10:56:39;;;;;;;27.55;13.05;;;;;;;37.95;33.63;97262.63;4948318;28;20051;-68
2022/05/11 10:59:41;;;;;;;32.03;13.18;;;;;;;37.91;30.93;97259.66;4950798;28;20086;-68
2022/05/11 11:02:48;;;;;;;36.88;12.85;;;;;;;37.80;34.95;97262.50;4949928;28;20050;-68
2022/05/11 11:09:08;;;;;;;33.80;13.68;;;;;;;37.70;33.99;97248.94;4953767;28;20427;-68
2022/05/11 11:12:34;;;;;;;23.65;12.27;;;;;;;37.68;34.74;97245.69;4953769;28;20102;-69
2022/05/11 11:15:16;;;;;;;30.58;13.25;;;;;;;37.64;34.74;97245.41;4901759;29;20059;-69
2022/05/11 11:18:06;;;;;;;33.22;12.93;;;;;;;37.67;33.81;97238.72;4915630;29;20060;-68
2022/05/11 11:21:01;;;;;;;24.45;11.70;;;;;;;37.51;35.39;97241.22;4917534;29;20048;-67
2022/05/11 11:23:48;;;;;;;37.97;11.45;;;;;;;37.47;34.58;97234.72;4923548;29;20040;-68
2022/05/11 11:26:36;;;;;;;27.38;12.07;;;;;;;37.41;35.79;97235.72;4922458;29;20535;-68
2022/05/11 11:29:22;;;;;;;31.25;11.85;;;;;;;37.44;32.50;97231.69;4920861;29;20072;-69
2022/05/11 11:32:21;;;;;;;37.25;13.73;;;;;;;37.49;32.77;97232.59;4922269;29;20056;-68
2022/05/11 11:35:21;;;;;;;34.63;12.95;;;;;;;37.42;34.49;97231.97;4929658;29;20716;-68
2022/05/11 11:38:10;;;;;;;33.67;13.57;;;;;;;37.29;36.43;97221.59;4928964;29;20044;-67
2022/05/11 11:41:23;;;;;;;36.38;13.27;;;;;;;37.27;36.03;97233.69;4926220;29;20047;-67
2022/05/11 11:44:43;;;;;;;32.30;17.70;;;;;;;37.18;35.80;97225.25;4930217;29;20111;-68
2022/05/11 11:47:59;;;;;;;45.65;17.92;;;;;;;37.17;34.62;97227.13;4921462;29;20146;-68
2022/05/11 11:51:03;;;;;;;30.92;15.95;;;;;;;36.97;36.96;97229.53;4920028;29;20048;-68
2022/05/11 11:53:51;;;;;;;31.50;15.30;;;;;;;36.95;34.73;97220.13;4920903;29;20475;-68
2022/05/11 11:56:46;;;;;;;25.83;14.88;;;;;;;36.85;36.59;97219.97;4935681;29;20736;-68
2022/05/11 11:59:32;;;;;;;29.00;15.60;;;;;;;36.79;38.15;97217.25;4919944;29;20436;-69
2022/05/11 12:02:39;;;;;;;34.95;15.75;;;;;;;36.76;36.68;97216.91;4918944;29;20044;-68
2022/05/11 12:05:49;;;;;;;37.05;16.40;;;;;;;36.82;37.22;97215.09;4918859;29;20063;-68
2022/05/11 12:15:01;;;;;;;36.30;15.48;;;;;;;36.86;36.99;97216.25;4939785;28;20510;-68
2022/05/11 12:17:50;;;;;;;32.55;15.35;;;;;;;36.83;35.23;97217.53;4947655;28;20051;-68
2022/05/11 12:20:44;;;;;;;33.75;15.68;;;;;;;36.75;36.53;97215.28;4929222;28;20052;-68
2022/05/11 12:23:44;;;;;;;38.45;16.30;;;;;;;36.74;38.78;97208.28;4930608;29;20098;-68
2022/05/11 12:26:33;;;;;;;30.95;14.07;;;;;;;36.68;36.46;97211.97;4930494;29;20058;-68
2022/05/11 12:32:27;;;;;;;36.47;14.25;;;;;;;36.49;36.72;97206.03;4924260;29;20052;-68
2022/05/11 12:35:29;;;;;;;39.38;16.00;;;;;;;36.51;36.10;97214.66;4918079;29;20872;-68
2022/05/11 12:38:14;;;;;;;33.33;14.40;;;;;;;36.75;34.29;97215.28;4916938;29;20048;-67
2022/05/11 12:41:08;;;;;;;37.72;14.80;;;;;;;36.72;35.36;97211.22;4921119;29;20051;-67
2022/05/11 12:44:04;;;;;;;48.05;14.38;;;;;;;36.83;35.63;97212.16;4918457;29;20059;-68
2022/05/11 12:46:54;;;;;;;42.85;15.23;;;;;;;36.66;36.49;97209.53;4929382;29;20126;-68
2022/05/11 12:49:36;;;;;;;;;;;;;;;36.59;36.42;97203.50;4914845;28;20063;-68
2022/05/11 12:52:27;;;;;;;40.42;15.57;;;;;;;36.51;34.86;97209.28;4918537;29;19982;-67
2022/05/11 12:55:26;;;;;;;36.85;14.00;;;;;;;36.43;36.10;97201.66;4917087;29;20908;-67
2022/05/11 12:58:10;;;;;;;43.08;14.82;;;;;;;36.38;35.55;97204.28;4912432;28;20131;-67
2022/05/11 13:01:02;;;;;;;36.70;14.75;;;;;;;36.37;36.66;97210.72;4922132;29;20064;-67
2022/05/11 13:03:53;;;;;;;39.70;14.63;;;;;;;36.29;36.49;97209.25;4924072;29;20442;-68
2022/05/11 13:06:36;;;;;;;31.10;13.90;;;;;;;36.22;36.30;97211.31;4928103;29;20051;-70
2022/05/11 13:09:29;;;;;;;31.88;15.07;;;;;;;36.09;39.09;97210.75;4926266;29;20047;-66
2022/05/11 13:12:24;;;;;;;41.35;15.25;;;;;;;36.00;36.36;97213.84;4926751;29;20466;-67
2022/05/11 13:15:02;;;;;;;41.35;14.93;;;;;;;35.96;38.73;97212.72;4923573;29;20047;-69
2022/05/11 13:17:56;;;;;;;37.33;15.10;;;;;;;35.83;37.65;97213.06;4922663;29;20167;-66
2022/05/11 13:20:44;;;;;;;40.72;15.27;;;;;;;35.71;37.69;97212.31;4916030;29;20048;-69
2022/05/11 13:23:46;;;;;;;36.33;15.65;;;;;;;35.56;40.69;97207.47;4921714;29;20067;-65
2022/05/11 13:26:55;;;;;;;37.00;16.20;;;;;;;35.42;38.70;97213.38;4930394;29;20043;-67
2022/05/11 13:29:44;;;;;;;32.47;14.82;;;;;;;35.30;40.45;97214.22;4931272;29;20082;-67
2022/05/11 13:32:31;;;;;;;47.53;16.77;;;;;;;35.20;42.89;97219.34;4916458;29;20067;-67
2022/05/11 13:35:27;;;;;;;34.08;16.48;;;;;;;35.16;44.45;97207.50;4924158;29;20142;-69
2022/05/11 13:38:23;;;;;;;46.67;17.00;;;;;;;35.14;39.10;97214.13;4928939;29;20460;-67
2022/05/11 13:41:17;;;;;;;55.03;18.33;;;;;;;35.05;41.68;97213.69;4928626;29;20040;-68
2022/05/11 13:44:01;;;;;;;45.50;17.70;;;;;;;35.00;42.71;97212.78;4928895;29;20055;-68
2022/05/11 13:49:53;;;;;;;37.28;16.10;;;;;;;34.81;44.07;97218.28;4925347;29;20195;-69
2022/05/11 13:52:57;;;;;;;44.58;17.60;;;;;;;34.73;44.78;97212.47;4920237;29;20622;-68
2022/05/11 13:55:46;;;;;;;39.80;17.00;;;;;;;34.67;43.52;97218.75;4919587;29;20052;-68
2022/05/11 13:58:37;;;;;;;42.88;16.73;;;;;;;34.54;45.67;97220.63;4926182;29;20523;-69